sensor_id;sensor_type;location;lat;lon;timestamp;P1;durP1;ratioP1;P2;durP2;ratioP2
76831;SDS011;65792;52.880;13.012;2022-12-07T00:01:20;8.30;;;5.35;;
76831;SDS011;65792;52.880;13.012;2022-12-07T00:03:59;10.95;;;6.07;;
76831;SDS011;65792;52.880;13.012;2022-12-07T00:06:39;8.93;;;5.55;;
76831;SDS011;65792;52.880;13.012;2022-12-07T00:09:07;11.63;;;5.93;;
76831;SDS011;65792;52.880;13.012;2022-12-07T00:11:36;10.43;;;5.72;;
76831;SDS011;65792;52.880;13.012;2022-12-07T00:14:02;10.43;;;6.78;;
76831;SDS011;65792;52.880;13.012;2022-12-07T00:16:31;8.80;;;6.05;;
76831;SDS011;65792;52.880;13.012;2022-12-07T00:18:58;9.95;;;6.03;;
76831;SDS011;65792;52.880;13.012;2022-12-07T00:21:25;7.35;;;5.53;;
76831;SDS011;65792;52.880;13.012;2022-12-07T00:23:53;8.60;;;5.35;;
76831;SDS011;65792;52.880;13.012;2022-12-07T00:26:21;9.40;;;5.80;;
76831;SDS011;65792;52.880;13.012;2022-12-07T00:28:49;8.20;;;4.82;;
76831;SDS011;65792;52.880;13.012;2022-12-07T00:31:17;10.13;;;6.10;;
76831;SDS011;65792;52.880;13.012;2022-12-07T00:33:44;9.50;;;5.50;;
76831;SDS011;65792;52.880;13.012;2022-12-07T00:36:11;9.13;;;5.43;;
76831;SDS011;65792;52.880;13.012;2022-12-07T00:38:42;6.82;;;5.10;;
76831;SDS011;65792;52.880;13.012;2022-12-07T00:41:12;8.70;;;5.35;;
76831;SDS011;65792;52.880;13.012;2022-12-07T00:43:40;10.57;;;5.72;;
76831;SDS011;65792;52.880;13.012;2022-12-07T00:46:07;11.93;;;6.93;;
76831;SDS011;65792;52.880;13.012;2022-12-07T00:48:33;10.88;;;6.60;;
76831;SDS011;65792;52.880;13.012;2022-12-07T00:50:58;9.13;;;5.15;;
76831;SDS011;65792;52.880;13.012;2022-12-07T00:53:25;9.13;;;4.72;;
76831;SDS011;65792;52.880;13.012;2022-12-07T00:55:51;6.70;;;4.90;;
76831;SDS011;65792;52.880;13.012;2022-12-07T00:58:17;10.20;;;5.80;;
76831;SDS011;65792;52.880;13.012;2022-12-07T01:00:43;9.05;;;6.25;;
76831;SDS011;65792;52.880;13.012;2022-12-07T01:03:10;11.35;;;6.38;;
76831;SDS011;65792;52.880;13.012;2022-12-07T01:05:37;9.57;;;6.07;;
76831;SDS011;65792;52.880;13.012;2022-12-07T01:08:03;7.90;;;5.35;;
76831;SDS011;65792;52.880;13.012;2022-12-07T01:10:29;9.73;;;5.78;;
76831;SDS011;65792;52.880;13.012;2022-12-07T01:12:56;7.47;;;5.35;;
76831;SDS011;65792;52.880;13.012;2022-12-07T01:15:23;7.35;;;4.95;;
76831;SDS011;65792;52.880;13.012;2022-12-07T01:17:49;6.20;;;4.28;;
76831;SDS011;65792;52.880;13.012;2022-12-07T01:20:14;7.53;;;5.28;;
76831;SDS011;65792;52.880;13.012;2022-12-07T01:22:41;6.35;;;3.97;;
76831;SDS011;65792;52.880;13.012;2022-12-07T01:25:08;7.60;;;4.70;;
76831;SDS011;65792;52.880;13.012;2022-12-07T01:27:35;9.27;;;6.05;;
76831;SDS011;65792;52.880;13.012;2022-12-07T01:30:01;7.28;;;4.97;;
76831;SDS011;65792;52.880;13.012;2022-12-07T01:32:29;9.07;;;4.80;;
76831;SDS011;65792;52.880;13.012;2022-12-07T01:34:54;8.55;;;4.93;;
76831;SDS011;65792;52.880;13.012;2022-12-07T01:40:02;9.43;;;4.25;;
76831;SDS011;65792;52.880;13.012;2022-12-07T01:42:28;5.90;;;3.47;;
76831;SDS011;65792;52.880;13.012;2022-12-07T01:47:57;8.00;;;5.55;;
76831;SDS011;65792;52.880;13.012;2022-12-07T01:50:24;7.85;;;4.60;;
76831;SDS011;65792;52.880;13.012;2022-12-07T01:52:53;6.85;;;4.47;;
76831;SDS011;65792;52.880;13.012;2022-12-07T01:55:21;5.95;;;4.05;;
76831;SDS011;65792;52.880;13.012;2022-12-07T01:57:48;6.55;;;4.93;;
76831;SDS011;65792;52.880;13.012;2022-12-07T02:00:16;6.95;;;4.97;;
76831;SDS011;65792;52.880;13.012;2022-12-07T02:02:53;6.07;;;4.38;;
76831;SDS011;65792;52.880;13.012;2022-12-07T02:05:23;6.63;;;4.45;;
76831;SDS011;65792;52.880;13.012;2022-12-07T02:07:50;4.97;;;3.00;;
76831;SDS011;65792;52.880;13.012;2022-12-07T02:10:19;6.50;;;3.88;;
76831;SDS011;65792;52.880;13.012;2022-12-07T02:12:49;4.18;;;3.47;;
76831;SDS011;65792;52.880;13.012;2022-12-07T02:15:20;4.30;;;3.65;;
76831;SDS011;65792;52.880;13.012;2022-12-07T02:18:00;5.82;;;4.38;;
76831;SDS011;65792;52.880;13.012;2022-12-07T02:20:39;4.60;;;3.65;;
76831;SDS011;65792;52.880;13.012;2022-12-07T02:26:13;5.75;;;3.75;;
76831;SDS011;65792;52.880;13.012;2022-12-07T02:31:55;5.80;;;3.50;;
76831;SDS011;65792;52.880;13.012;2022-12-07T02:34:37;4.10;;;3.10;;
76831;SDS011;65792;52.880;13.012;2022-12-07T02:37:10;3.97;;;2.90;;
76831;SDS011;65792;52.880;13.012;2022-12-07T02:39:48;4.63;;;4.05;;
76831;SDS011;65792;52.880;13.012;2022-12-07T02:42:42;6.25;;;3.75;;
76831;SDS011;65792;52.880;13.012;2022-12-07T02:45:13;4.78;;;3.40;;
76831;SDS011;65792;52.880;13.012;2022-12-07T02:47:43;1.25;;;1.15;;
76831;SDS011;65792;52.880;13.012;2022-12-07T02:50:09;5.15;;;4.13;;
76831;SDS011;65792;52.880;13.012;2022-12-07T02:52:35;6.40;;;3.92;;
76831;SDS011;65792;52.880;13.012;2022-12-07T02:55:01;7.03;;;4.70;;
76831;SDS011;65792;52.880;13.012;2022-12-07T03:00:11;3.72;;;1.65;;
76831;SDS011;65792;52.880;13.012;2022-12-07T03:18:55;5.05;;;3.80;;
76831;SDS011;65792;52.880;13.012;2022-12-07T03:21:25;4.57;;;3.95;;
76831;SDS011;65792;52.880;13.012;2022-12-07T03:23:56;6.32;;;3.55;;
76831;SDS011;65792;52.880;13.012;2022-12-07T03:26:28;4.68;;;3.60;;
76831;SDS011;65792;52.880;13.012;2022-12-07T03:29:00;4.90;;;3.42;;
76831;SDS011;65792;52.880;13.012;2022-12-07T03:31:32;9.73;;;5.15;;
76831;SDS011;65792;52.880;13.012;2022-12-07T03:34:07;6.72;;;5.10;;
76831;SDS011;65792;52.880;13.012;2022-12-07T03:36:44;2.58;;;2.38;;
76831;SDS011;65792;52.880;13.012;2022-12-07T03:41:54;6.50;;;4.07;;
76831;SDS011;65792;52.880;13.012;2022-12-07T03:44:21;5.93;;;4.13;;
76831;SDS011;65792;52.880;13.012;2022-12-07T03:54:45;11.23;;;6.28;;
76831;SDS011;65792;52.880;13.012;2022-12-07T03:57:42;8.52;;;4.82;;
76831;SDS011;65792;52.880;13.012;2022-12-07T04:00:10;8.55;;;4.43;;
76831;SDS011;65792;52.880;13.012;2022-12-07T04:02:37;6.50;;;4.65;;
76831;SDS011;65792;52.880;13.012;2022-12-07T04:05:03;9.18;;;5.55;;
76831;SDS011;65792;52.880;13.012;2022-12-07T04:07:29;10.65;;;6.47;;
76831;SDS011;65792;52.880;13.012;2022-12-07T04:09:55;9.32;;;5.75;;
76831;SDS011;65792;52.880;13.012;2022-12-07T04:12:21;7.88;;;5.82;;
76831;SDS011;65792;52.880;13.012;2022-12-07T04:14:48;6.95;;;4.68;;
76831;SDS011;65792;52.880;13.012;2022-12-07T04:17:13;12.40;;;6.93;;
76831;SDS011;65792;52.880;13.012;2022-12-07T04:19:38;8.35;;;5.65;;
76831;SDS011;65792;52.880;13.012;2022-12-07T04:22:04;16.90;;;9.68;;
76831;SDS011;65792;52.880;13.012;2022-12-07T04:24:30;10.75;;;4.90;;
76831;SDS011;65792;52.880;13.012;2022-12-07T04:26:56;1.17;;;1.17;;
76831;SDS011;65792;52.880;13.012;2022-12-07T04:29:22;11.55;;;6.25;;
76831;SDS011;65792;52.880;13.012;2022-12-07T04:31:48;13.90;;;7.78;;
76831;SDS011;65792;52.880;13.012;2022-12-07T04:34:14;17.75;;;9.98;;
76831;SDS011;65792;52.880;13.012;2022-12-07T04:36:41;12.43;;;7.32;;
76831;SDS011;65792;52.880;13.012;2022-12-07T04:39:07;6.00;;;3.78;;
76831;SDS011;65792;52.880;13.012;2022-12-07T04:41:38;12.80;;;6.68;;
76831;SDS011;65792;52.880;13.012;2022-12-07T04:44:04;16.50;;;9.23;;
76831;SDS011;65792;52.880;13.012;2022-12-07T04:46:32;6.97;;;3.78;;
76831;SDS011;65792;52.880;13.012;2022-12-07T04:48:58;4.28;;;3.10;;
76831;SDS011;65792;52.880;13.012;2022-12-07T04:51:26;14.57;;;8.52;;
76831;SDS011;65792;52.880;13.012;2022-12-07T04:53:52;14.85;;;8.75;;
76831;SDS011;65792;52.880;13.012;2022-12-07T04:56:18;14.13;;;7.70;;
76831;SDS011;65792;52.880;13.012;2022-12-07T04:58:44;20.23;;;11.50;;
76831;SDS011;65792;52.880;13.012;2022-12-07T05:01:12;15.25;;;8.50;;
76831;SDS011;65792;52.880;13.012;2022-12-07T05:03:39;21.02;;;11.95;;
76831;SDS011;65792;52.880;13.012;2022-12-07T05:06:05;19.42;;;11.40;;
76831;SDS011;65792;52.880;13.012;2022-12-07T05:08:34;7.43;;;5.85;;
76831;SDS011;65792;52.880;13.012;2022-12-07T05:11:00;11.32;;;7.90;;
76831;SDS011;65792;52.880;13.012;2022-12-07T05:13:26;14.27;;;7.80;;
76831;SDS011;65792;52.880;13.012;2022-12-07T05:15:52;14.35;;;8.63;;
76831;SDS011;65792;52.880;13.012;2022-12-07T05:18:17;16.65;;;10.15;;
76831;SDS011;65792;52.880;13.012;2022-12-07T05:20:43;10.80;;;8.32;;
76831;SDS011;65792;52.880;13.012;2022-12-07T05:23:10;22.02;;;9.93;;
76831;SDS011;65792;52.880;13.012;2022-12-07T05:25:36;7.97;;;4.88;;
76831;SDS011;65792;52.880;13.012;2022-12-07T05:28:01;17.08;;;9.43;;
76831;SDS011;65792;52.880;13.012;2022-12-07T05:30:27;14.15;;;8.15;;
76831;SDS011;65792;52.880;13.012;2022-12-07T05:32:52;7.35;;;5.38;;
76831;SDS011;65792;52.880;13.012;2022-12-07T05:35:18;14.82;;;8.23;;
76831;SDS011;65792;52.880;13.012;2022-12-07T05:37:44;15.02;;;8.27;;
76831;SDS011;65792;52.880;13.012;2022-12-07T05:40:10;11.80;;;7.63;;
76831;SDS011;65792;52.880;13.012;2022-12-07T05:42:37;11.35;;;7.97;;
76831;SDS011;65792;52.880;13.012;2022-12-07T05:45:02;15.55;;;8.65;;
76831;SDS011;65792;52.880;13.012;2022-12-07T05:47:29;15.00;;;8.55;;
76831;SDS011;65792;52.880;13.012;2022-12-07T05:49:54;11.27;;;6.65;;
76831;SDS011;65792;52.880;13.012;2022-12-07T05:52:20;2.90;;;2.60;;
76831;SDS011;65792;52.880;13.012;2022-12-07T05:54:46;8.05;;;5.00;;
76831;SDS011;65792;52.880;13.012;2022-12-07T05:57:11;4.15;;;3.53;;
76831;SDS011;65792;52.880;13.012;2022-12-07T05:59:37;12.70;;;8.02;;
76831;SDS011;65792;52.880;13.012;2022-12-07T06:02:04;11.38;;;7.32;;
76831;SDS011;65792;52.880;13.012;2022-12-07T06:04:43;11.82;;;7.03;;
76831;SDS011;65792;52.880;13.012;2022-12-07T06:07:11;15.73;;;9.13;;
76831;SDS011;65792;52.880;13.012;2022-12-07T06:09:38;12.85;;;7.30;;
76831;SDS011;65792;52.880;13.012;2022-12-07T06:12:05;13.02;;;6.43;;
76831;SDS011;65792;52.880;13.012;2022-12-07T06:14:50;2.63;;;2.47;;
76831;SDS011;65792;52.880;13.012;2022-12-07T06:17:16;14.30;;;7.53;;
76831;SDS011;65792;52.880;13.012;2022-12-07T06:19:42;7.57;;;4.68;;
76831;SDS011;65792;52.880;13.012;2022-12-07T06:22:08;8.70;;;5.68;;
76831;SDS011;65792;52.880;13.012;2022-12-07T06:24:35;12.52;;;7.53;;
76831;SDS011;65792;52.880;13.012;2022-12-07T06:27:01;1.73;;;1.55;;
76831;SDS011;65792;52.880;13.012;2022-12-07T06:29:27;12.13;;;6.05;;
76831;SDS011;65792;52.880;13.012;2022-12-07T06:31:53;4.60;;;3.50;;
76831;SDS011;65792;52.880;13.012;2022-12-07T06:34:19;9.93;;;6.25;;
76831;SDS011;65792;52.880;13.012;2022-12-07T06:36:48;7.40;;;4.97;;
76831;SDS011;65792;52.880;13.012;2022-12-07T06:39:20;9.18;;;6.43;;
76831;SDS011;65792;52.880;13.012;2022-12-07T06:41:48;11.93;;;5.93;;
76831;SDS011;65792;52.880;13.012;2022-12-07T06:44:16;9.63;;;5.65;;
76831;SDS011;65792;52.880;13.012;2022-12-07T06:46:42;7.32;;;5.72;;
76831;SDS011;65792;52.880;13.012;2022-12-07T06:49:07;4.63;;;3.85;;
76831;SDS011;65792;52.880;13.012;2022-12-07T06:51:33;3.90;;;3.50;;
76831;SDS011;65792;52.880;13.012;2022-12-07T06:54:02;10.38;;;5.78;;
76831;SDS011;65792;52.880;13.012;2022-12-07T06:56:28;4.95;;;2.13;;
76831;SDS011;65792;52.880;13.012;2022-12-07T06:58:54;4.13;;;3.03;;
76831;SDS011;65792;52.880;13.012;2022-12-07T07:01:20;12.10;;;6.63;;
76831;SDS011;65792;52.880;13.012;2022-12-07T07:03:46;7.50;;;5.18;;
76831;SDS011;65792;52.880;13.012;2022-12-07T07:06:12;4.90;;;2.58;;
76831;SDS011;65792;52.880;13.012;2022-12-07T07:08:38;7.82;;;4.97;;
76831;SDS011;65792;52.880;13.012;2022-12-07T07:11:04;6.65;;;4.45;;
76831;SDS011;65792;52.880;13.012;2022-12-07T07:13:31;5.95;;;3.28;;
76831;SDS011;65792;52.880;13.012;2022-12-07T07:15:57;6.82;;;4.25;;
76831;SDS011;65792;52.880;13.012;2022-12-07T07:18:23;4.50;;;3.95;;
76831;SDS011;65792;52.880;13.012;2022-12-07T07:20:50;2.80;;;2.47;;
76831;SDS011;65792;52.880;13.012;2022-12-07T07:23:16;1.90;;;1.73;;
76831;SDS011;65792;52.880;13.012;2022-12-07T07:25:41;4.72;;;3.25;;
76831;SDS011;65792;52.880;13.012;2022-12-07T07:28:07;6.35;;;3.83;;
76831;SDS011;65792;52.880;13.012;2022-12-07T07:30:33;4.53;;;3.25;;
76831;SDS011;65792;52.880;13.012;2022-12-07T07:32:58;7.13;;;4.03;;
76831;SDS011;65792;52.880;13.012;2022-12-07T07:35:25;6.95;;;3.88;;
76831;SDS011;65792;52.880;13.012;2022-12-07T07:37:52;5.30;;;3.67;;
76831;SDS011;65792;52.880;13.012;2022-12-07T07:40:17;5.05;;;3.58;;
76831;SDS011;65792;52.880;13.012;2022-12-07T07:42:43;6.45;;;3.83;;
76831;SDS011;65792;52.880;13.012;2022-12-07T07:45:09;3.92;;;2.60;;
76831;SDS011;65792;52.880;13.012;2022-12-07T07:47:35;5.35;;;3.92;;
76831;SDS011;65792;52.880;13.012;2022-12-07T07:50:00;4.57;;;3.58;;
76831;SDS011;65792;52.880;13.012;2022-12-07T07:52:26;5.78;;;4.10;;
76831;SDS011;65792;52.880;13.012;2022-12-07T07:54:51;6.65;;;3.15;;
76831;SDS011;65792;52.880;13.012;2022-12-07T07:57:17;3.42;;;3.13;;
76831;SDS011;65792;52.880;13.012;2022-12-07T07:59:42;3.65;;;2.83;;
76831;SDS011;65792;52.880;13.012;2022-12-07T08:02:10;6.25;;;4.50;;
76831;SDS011;65792;52.880;13.012;2022-12-07T08:04:39;2.30;;;1.37;;
76831;SDS011;65792;52.880;13.012;2022-12-07T08:07:05;8.55;;;4.32;;
76831;SDS011;65792;52.880;13.012;2022-12-07T08:09:30;5.03;;;3.17;;
76831;SDS011;65792;52.880;13.012;2022-12-07T08:11:56;6.20;;;4.80;;
76831;SDS011;65792;52.880;13.012;2022-12-07T08:14:22;4.10;;;3.70;;
76831;SDS011;65792;52.880;13.012;2022-12-07T08:16:47;9.98;;;3.45;;
76831;SDS011;65792;52.880;13.012;2022-12-07T08:19:13;6.43;;;4.35;;
76831;SDS011;65792;52.880;13.012;2022-12-07T08:21:38;7.80;;;4.00;;
76831;SDS011;65792;52.880;13.012;2022-12-07T08:24:04;4.53;;;3.53;;
76831;SDS011;65792;52.880;13.012;2022-12-07T08:26:30;4.78;;;3.42;;
76831;SDS011;65792;52.880;13.012;2022-12-07T08:28:55;5.13;;;3.72;;
76831;SDS011;65792;52.880;13.012;2022-12-07T08:31:21;7.47;;;3.25;;
76831;SDS011;65792;52.880;13.012;2022-12-07T08:33:47;6.93;;;4.55;;
76831;SDS011;65792;52.880;13.012;2022-12-07T08:36:13;5.00;;;3.35;;
76831;SDS011;65792;52.880;13.012;2022-12-07T08:38:40;2.05;;;1.38;;
76831;SDS011;65792;52.880;13.012;2022-12-07T08:41:07;3.65;;;3.17;;
76831;SDS011;65792;52.880;13.012;2022-12-07T08:43:33;5.18;;;3.92;;
76831;SDS011;65792;52.880;13.012;2022-12-07T08:48:24;5.32;;;3.58;;
76831;SDS011;65792;52.880;13.012;2022-12-07T08:50:51;3.53;;;3.05;;
76831;SDS011;65792;52.880;13.012;2022-12-07T08:53:17;7.75;;;5.50;;
76831;SDS011;65792;52.880;13.012;2022-12-07T08:55:43;5.40;;;3.70;;
76831;SDS011;65792;52.880;13.012;2022-12-07T08:58:11;4.15;;;2.97;;
76831;SDS011;65792;52.880;13.012;2022-12-07T09:00:37;4.50;;;3.38;;
76831;SDS011;65792;52.880;13.012;2022-12-07T09:03:02;2.60;;;2.15;;
76831;SDS011;65792;52.880;13.012;2022-12-07T09:05:28;3.65;;;2.97;;
76831;SDS011;65792;52.880;13.012;2022-12-07T09:07:55;0.77;;;0.77;;
76831;SDS011;65792;52.880;13.012;2022-12-07T09:10:25;6.30;;;2.75;;
76831;SDS011;65792;52.880;13.012;2022-12-07T09:12:51;3.75;;;2.20;;
76831;SDS011;65792;52.880;13.012;2022-12-07T09:15:16;6.07;;;3.30;;
76831;SDS011;65792;52.880;13.012;2022-12-07T09:17:42;4.07;;;2.97;;
76831;SDS011;65792;52.880;13.012;2022-12-07T09:20:08;5.15;;;4.00;;
76831;SDS011;65792;52.880;13.012;2022-12-07T09:22:33;4.07;;;2.25;;
76831;SDS011;65792;52.880;13.012;2022-12-07T09:24:59;3.15;;;2.50;;
76831;SDS011;65792;52.880;13.012;2022-12-07T09:27:25;4.28;;;3.50;;
76831;SDS011;65792;52.880;13.012;2022-12-07T09:29:52;3.05;;;2.53;;
76831;SDS011;65792;52.880;13.012;2022-12-07T09:32:18;2.10;;;1.90;;
76831;SDS011;65792;52.880;13.012;2022-12-07T09:34:43;3.60;;;2.42;;
76831;SDS011;65792;52.880;13.012;2022-12-07T09:37:09;2.65;;;1.85;;
76831;SDS011;65792;52.880;13.012;2022-12-07T09:39:38;3.25;;;2.35;;
76831;SDS011;65792;52.880;13.012;2022-12-07T09:42:04;2.60;;;2.10;;
76831;SDS011;65792;52.880;13.012;2022-12-07T09:44:32;2.42;;;2.08;;
76831;SDS011;65792;52.880;13.012;2022-12-07T09:46:58;2.08;;;1.88;;
76831;SDS011;65792;52.880;13.012;2022-12-07T09:49:24;2.75;;;2.53;;
76831;SDS011;65792;52.880;13.012;2022-12-07T09:54:35;1.55;;;1.30;;
76831;SDS011;65792;52.880;13.012;2022-12-07T09:57:02;5.47;;;1.15;;
76831;SDS011;65792;52.880;13.012;2022-12-07T09:59:28;2.53;;;2.05;;
76831;SDS011;65792;52.880;13.012;2022-12-07T10:01:54;2.55;;;1.83;;
76831;SDS011;65792;52.880;13.012;2022-12-07T10:04:24;2.00;;;1.63;;
76831;SDS011;65792;52.880;13.012;2022-12-07T10:06:51;2.35;;;1.83;;
76831;SDS011;65792;52.880;13.012;2022-12-07T10:09:17;2.50;;;1.75;;
76831;SDS011;65792;52.880;13.012;2022-12-07T10:12:01;5.20;;;2.75;;
76831;SDS011;65792;52.880;13.012;2022-12-07T10:14:33;2.03;;;1.48;;
76831;SDS011;65792;52.880;13.012;2022-12-07T10:17:01;2.03;;;1.60;;
76831;SDS011;65792;52.880;13.012;2022-12-07T10:19:31;1.60;;;1.48;;
76831;SDS011;65792;52.880;13.012;2022-12-07T10:24:28;3.97;;;3.20;;
76831;SDS011;65792;52.880;13.012;2022-12-07T10:26:54;3.85;;;2.78;;
76831;SDS011;65792;52.880;13.012;2022-12-07T10:29:38;4.03;;;3.17;;
76831;SDS011;65792;52.880;13.012;2022-12-07T10:32:05;2.47;;;2.10;;
76831;SDS011;65792;52.880;13.012;2022-12-07T10:34:51;2.78;;;1.70;;
76831;SDS011;65792;52.880;13.012;2022-12-07T10:37:51;3.60;;;2.58;;
76831;SDS011;65792;52.880;13.012;2022-12-07T10:40:26;2.67;;;1.85;;
76831;SDS011;65792;52.880;13.012;2022-12-07T10:43:00;1.23;;;1.10;;
76831;SDS011;65792;52.880;13.012;2022-12-07T10:45:34;1.50;;;1.40;;
76831;SDS011;65792;52.880;13.012;2022-12-07T10:48:12;3.05;;;2.13;;
76831;SDS011;65792;52.880;13.012;2022-12-07T11:01:54;4.00;;;2.72;;
76831;SDS011;65792;52.880;13.012;2022-12-07T11:23:13;3.85;;;3.03;;
76831;SDS011;65792;52.880;13.012;2022-12-07T11:31:17;4.85;;;3.70;;
76831;SDS011;65792;52.880;13.012;2022-12-07T11:36:40;5.47;;;3.38;;
76831;SDS011;65792;52.880;13.012;2022-12-07T11:41:43;0.57;;;0.57;;
76831;SDS011;65792;52.880;13.012;2022-12-07T11:44:33;4.93;;;3.03;;
76831;SDS011;65792;52.880;13.012;2022-12-07T11:47:09;4.22;;;2.03;;
76831;SDS011;65792;52.880;13.012;2022-12-07T11:49:45;3.00;;;2.70;;
76831;SDS011;65792;52.880;13.012;2022-12-07T11:55:40;1.90;;;1.80;;
76831;SDS011;65792;52.880;13.012;2022-12-07T12:01:14;3.33;;;2.65;;
76831;SDS011;65792;52.880;13.012;2022-12-07T12:06:21;3.03;;;2.72;;
76831;SDS011;65792;52.880;13.012;2022-12-07T12:19:37;2.45;;;1.95;;
76831;SDS011;65792;52.880;13.012;2022-12-07T12:22:22;5.88;;;2.45;;
76831;SDS011;65792;52.880;13.012;2022-12-07T12:25:27;3.75;;;2.20;;
76831;SDS011;65792;52.880;13.012;2022-12-07T12:27:59;3.83;;;2.35;;
76831;SDS011;65792;52.880;13.012;2022-12-07T12:30:27;4.43;;;2.30;;
76831;SDS011;65792;52.880;13.012;2022-12-07T12:33:13;2.58;;;1.98;;
76831;SDS011;65792;52.880;13.012;2022-12-07T12:35:46;2.35;;;1.90;;
76831;SDS011;65792;52.880;13.012;2022-12-07T12:53:00;3.70;;;2.08;;
76831;SDS011;65792;52.880;13.012;2022-12-07T12:55:45;5.40;;;2.38;;
76831;SDS011;65792;52.880;13.012;2022-12-07T13:00:42;1.75;;;1.65;;
76831;SDS011;65792;52.880;13.012;2022-12-07T13:03:25;5.15;;;2.83;;
76831;SDS011;65792;52.880;13.012;2022-12-07T13:08:50;4.10;;;2.53;;
76831;SDS011;65792;52.880;13.012;2022-12-07T13:19:57;3.70;;;2.00;;
76831;SDS011;65792;52.880;13.012;2022-12-07T13:25:38;2.85;;;1.67;;
76831;SDS011;65792;52.880;13.012;2022-12-07T13:28:16;2.05;;;1.85;;
76831;SDS011;65792;52.880;13.012;2022-12-07T13:31:30;2.78;;;2.53;;
76831;SDS011;65792;52.880;13.012;2022-12-07T13:33:35;1.10;;;1.00;;
76831;SDS011;65792;52.880;13.012;2022-12-07T13:36:01;2.65;;;1.30;;
76831;SDS011;65792;52.880;13.012;2022-12-07T13:38:28;3.78;;;2.80;;
76831;SDS011;65792;52.880;13.012;2022-12-07T13:41:03;2.85;;;2.10;;
76831;SDS011;65792;52.880;13.012;2022-12-07T13:43:29;1.38;;;1.27;;
76831;SDS011;65792;52.880;13.012;2022-12-07T13:45:58;1.05;;;1.02;;
76831;SDS011;65792;52.880;13.012;2022-12-07T13:48:45;3.17;;;1.83;;
76831;SDS011;65792;52.880;13.012;2022-12-07T13:51:22;4.40;;;1.75;;
76831;SDS011;65792;52.880;13.012;2022-12-07T13:53:52;3.05;;;2.13;;
76831;SDS011;65792;52.880;13.012;2022-12-07T13:56:21;6.15;;;1.77;;
76831;SDS011;65792;52.880;13.012;2022-12-07T13:58:51;4.45;;;2.75;;
76831;SDS011;65792;52.880;13.012;2022-12-07T14:01:16;3.33;;;2.03;;
76831;SDS011;65792;52.880;13.012;2022-12-07T14:03:43;1.17;;;1.02;;
76831;SDS011;65792;52.880;13.012;2022-12-07T14:08:42;1.95;;;1.25;;
76831;SDS011;65792;52.880;13.012;2022-12-07T14:11:28;1.27;;;1.17;;
76831;SDS011;65792;52.880;13.012;2022-12-07T14:13:58;2.63;;;2.03;;
76831;SDS011;65792;52.880;13.012;2022-12-07T14:16:30;4.05;;;1.98;;
76831;SDS011;65792;52.880;13.012;2022-12-07T14:19:02;5.30;;;1.65;;
76831;SDS011;65792;52.880;13.012;2022-12-07T14:21:30;1.42;;;0.90;;
76831;SDS011;65792;52.880;13.012;2022-12-07T14:26:28;2.20;;;1.80;;
76831;SDS011;65792;52.880;13.012;2022-12-07T14:28:59;2.25;;;1.70;;
76831;SDS011;65792;52.880;13.012;2022-12-07T14:31:56;3.60;;;1.98;;
76831;SDS011;65792;52.880;13.012;2022-12-07T14:34:29;2.30;;;1.48;;
76831;SDS011;65792;52.880;13.012;2022-12-07T14:36:55;2.13;;;1.80;;
76831;SDS011;65792;52.880;13.012;2022-12-07T14:39:20;4.68;;;2.38;;
76831;SDS011;65792;52.880;13.012;2022-12-07T14:41:46;2.17;;;2.00;;
76831;SDS011;65792;52.880;13.012;2022-12-07T14:44:19;2.80;;;2.53;;
76831;SDS011;65792;52.880;13.012;2022-12-07T14:46:47;1.58;;;1.27;;
76831;SDS011;65792;52.880;13.012;2022-12-07T14:49:13;4.47;;;1.77;;
76831;SDS011;65792;52.880;13.012;2022-12-07T14:51:39;1.38;;;1.23;;
76831;SDS011;65792;52.880;13.012;2022-12-07T14:54:06;4.78;;;2.03;;
76831;SDS011;65792;52.880;13.012;2022-12-07T14:56:39;2.65;;;1.70;;
76831;SDS011;65792;52.880;13.012;2022-12-07T14:59:04;1.50;;;1.05;;
76831;SDS011;65792;52.880;13.012;2022-12-07T15:01:30;2.25;;;1.60;;
76831;SDS011;65792;52.880;13.012;2022-12-07T15:03:55;3.45;;;1.40;;
76831;SDS011;65792;52.880;13.012;2022-12-07T15:06:20;0.90;;;0.90;;
76831;SDS011;65792;52.880;13.012;2022-12-07T15:08:46;1.73;;;1.58;;
76831;SDS011;65792;52.880;13.012;2022-12-07T15:11:13;4.55;;;1.83;;
76831;SDS011;65792;52.880;13.012;2022-12-07T15:13:39;3.13;;;1.55;;
76831;SDS011;65792;52.880;13.012;2022-12-07T15:16:23;1.75;;;1.60;;
76831;SDS011;65792;52.880;13.012;2022-12-07T15:18:49;2.03;;;1.40;;
76831;SDS011;65792;52.880;13.012;2022-12-07T15:21:14;3.40;;;1.45;;
76831;SDS011;65792;52.880;13.012;2022-12-07T15:23:40;3.13;;;2.10;;
76831;SDS011;65792;52.880;13.012;2022-12-07T15:26:06;1.73;;;1.55;;
76831;SDS011;65792;52.880;13.012;2022-12-07T15:28:33;3.90;;;2.30;;
76831;SDS011;65792;52.880;13.012;2022-12-07T15:30:58;2.80;;;1.90;;
76831;SDS011;65792;52.880;13.012;2022-12-07T15:33:24;1.92;;;1.63;;
76831;SDS011;65792;52.880;13.012;2022-12-07T15:35:49;2.10;;;1.90;;
76831;SDS011;65792;52.880;13.012;2022-12-07T15:38:15;2.85;;;1.65;;
76831;SDS011;65792;52.880;13.012;2022-12-07T15:40:40;2.88;;;1.95;;
76831;SDS011;65792;52.880;13.012;2022-12-07T15:43:08;6.28;;;1.95;;
76831;SDS011;65792;52.880;13.012;2022-12-07T15:45:54;2.55;;;1.52;;
76831;SDS011;65792;52.880;13.012;2022-12-07T15:48:20;5.32;;;2.50;;
76831;SDS011;65792;52.880;13.012;2022-12-07T15:50:45;3.88;;;1.50;;
76831;SDS011;65792;52.880;13.012;2022-12-07T15:53:11;2.80;;;1.45;;
76831;SDS011;65792;52.880;13.012;2022-12-07T15:55:38;1.52;;;1.23;;
76831;SDS011;65792;52.880;13.012;2022-12-07T15:58:05;3.55;;;1.17;;
76831;SDS011;65792;52.880;13.012;2022-12-07T16:00:31;1.10;;;1.00;;
76831;SDS011;65792;52.880;13.012;2022-12-07T16:02:56;1.42;;;0.95;;
76831;SDS011;65792;52.880;13.012;2022-12-07T16:05:21;3.83;;;1.35;;
76831;SDS011;65792;52.880;13.012;2022-12-07T16:07:47;1.27;;;1.20;;
76831;SDS011;65792;52.880;13.012;2022-12-07T16:10:13;2.38;;;1.63;;
76831;SDS011;65792;52.880;13.012;2022-12-07T16:12:38;5.10;;;1.63;;
76831;SDS011;65792;52.880;13.012;2022-12-07T16:15:04;1.10;;;1.00;;
76831;SDS011;65792;52.880;13.012;2022-12-07T16:17:30;1.83;;;1.73;;
76831;SDS011;65792;52.880;13.012;2022-12-07T16:19:58;7.07;;;4.40;;
76831;SDS011;65792;52.880;13.012;2022-12-07T16:22:25;4.93;;;3.80;;
76831;SDS011;65792;52.880;13.012;2022-12-07T16:24:50;3.20;;;2.90;;
76831;SDS011;65792;52.880;13.012;2022-12-07T16:27:16;1.17;;;1.10;;
76831;SDS011;65792;52.880;13.012;2022-12-07T16:29:41;1.50;;;1.38;;
76831;SDS011;65792;52.880;13.012;2022-12-07T16:32:07;1.67;;;1.42;;
76831;SDS011;65792;52.880;13.012;2022-12-07T16:34:32;2.55;;;1.50;;
76831;SDS011;65792;52.880;13.012;2022-12-07T16:36:58;1.83;;;1.13;;
76831;SDS011;65792;52.880;13.012;2022-12-07T16:39:23;2.25;;;1.27;;
76831;SDS011;65792;52.880;13.012;2022-12-07T16:41:49;1.83;;;1.33;;
76831;SDS011;65792;52.880;13.012;2022-12-07T16:44:15;2.78;;;1.88;;
76831;SDS011;65792;52.880;13.012;2022-12-07T16:46:41;3.95;;;2.50;;
76831;SDS011;65792;52.880;13.012;2022-12-07T16:49:09;2.65;;;2.20;;
76831;SDS011;65792;52.880;13.012;2022-12-07T16:51:37;6.72;;;2.78;;
76831;SDS011;65792;52.880;13.012;2022-12-07T16:54:03;2.97;;;2.42;;
76831;SDS011;65792;52.880;13.012;2022-12-07T16:56:29;5.68;;;2.47;;
76831;SDS011;65792;52.880;13.012;2022-12-07T16:58:54;3.42;;;2.30;;
76831;SDS011;65792;52.880;13.012;2022-12-07T17:01:22;3.80;;;1.40;;
76831;SDS011;65792;52.880;13.012;2022-12-07T17:03:48;1.88;;;1.73;;
76831;SDS011;65792;52.880;13.012;2022-12-07T17:06:15;6.97;;;3.05;;
76831;SDS011;65792;52.880;13.012;2022-12-07T17:08:48;6.35;;;3.28;;